createdAt,value
2022-08-03T04:40:53.954Z,97049.22
2022-08-03T04:56:47.128Z,97061.00
2022-08-03T04:59:15.285Z,97052.19
2022-08-03T05:01:43.470Z,97059.44
2022-08-03T05:04:11.436Z,97061.06
2022-08-03T05:06:41.452Z,97063.44
2022-08-03T05:09:16.345Z,97069.56
2022-08-03T05:12:05.817Z,97082.34
2022-08-03T05:14:34.542Z,97070.47
2022-08-03T05:17:02.499Z,97071.03
2022-08-03T05:19:30.757Z,97072.66
2022-08-03T05:21:58.794Z,97081.75
2022-08-03T05:24:27.404Z,97072.91
2022-08-03T05:26:55.310Z,97075.78
2022-08-03T05:29:23.014Z,97082.66
2022-08-03T05:31:50.770Z,97076.63
2022-08-03T05:34:18.664Z,97075.66
2022-08-03T05:36:46.471Z,97073.50
2022-08-03T05:39:14.188Z,97078.69
2022-08-03T05:41:41.928Z,97079.53
2022-08-03T05:44:09.791Z,97074.19
2022-08-03T05:46:37.897Z,97081.69
2022-08-03T05:49:05.639Z,97087.03
2022-08-03T05:51:33.533Z,97089.59
2022-08-03T05:54:01.212Z,97085.25
2022-08-03T05:56:28.997Z,97094.59
2022-08-03T05:58:56.945Z,97086.81
2022-08-03T06:01:25.197Z,97091.09
2022-08-03T06:03:52.971Z,97086.69
2022-08-03T06:06:20.921Z,97090.84
2022-08-03T06:08:49.022Z,97091.59
2022-08-03T06:11:16.981Z,97099.25
2022-08-03T06:13:47.239Z,97092.13
2022-08-03T06:16:14.965Z,97105.03
2022-08-03T06:18:43.455Z,97106.25
2022-08-03T06:21:14.391Z,97105.69
2022-08-03T06:23:55.174Z,97106.59
2022-08-03T06:26:25.068Z,97105.66
2022-08-03T06:28:54.431Z,97111.69
2022-08-03T06:31:32.326Z,97113.59
2022-08-03T06:34:32.916Z,97110.19
2022-08-03T06:36:53.235Z,97102.66
2022-08-03T06:39:23.477Z,97107.06
2022-08-03T06:41:51.974Z,97119.28
2022-08-03T06:44:20.229Z,97108.19
2022-08-03T06:46:47.993Z,97119.31
2022-08-03T06:49:15.838Z,97120.97
2022-08-03T06:52:04.222Z,97114.91
2022-08-03T06:54:33.293Z,97128.81
2022-08-03T06:57:01.574Z,97115.41
2022-08-03T07:00:07.918Z,97118.13
2022-08-03T07:02:19.560Z,97124.41
2022-08-03T07:04:50.525Z,97111.69
2022-08-03T07:07:19.563Z,97123.81
2022-08-03T07:09:57.138Z,97126.38
2022-08-03T07:12:27.183Z,97130.75
2022-08-03T07:14:59.798Z,97110.44
2022-08-03T07:17:29.793Z,97113.06
2022-08-03T07:19:58.206Z,97112.81
2022-08-03T07:22:26.059Z,97114.94
2022-08-03T07:24:53.914Z,97105.44
2022-08-03T07:27:22.638Z,97110.03
2022-08-03T07:29:50.334Z,97116.91
2022-08-03T07:32:18.904Z,97117.22
2022-08-03T07:34:47.151Z,97113.84
2022-08-03T07:37:15.255Z,97120.34
2022-08-03T07:39:43.318Z,97117.03
2022-08-03T07:42:11.406Z,97120.25
2022-08-03T07:44:39.589Z,97123.28
2022-08-03T07:47:07.601Z,97129.75
2022-08-03T07:49:41.422Z,97123.34
2022-08-03T07:52:28.414Z,97127.72
2022-08-03T07:54:56.377Z,97139.66
2022-08-03T07:57:24.227Z,97139.88
2022-08-03T07:59:56.640Z,97135.41
2022-08-03T08:02:25.256Z,97135.84
2022-08-03T08:04:53.255Z,97137.22
2022-08-03T08:07:21.025Z,97135.91
2022-08-03T08:09:48.773Z,97133.38
2022-08-03T08:12:17.071Z,97135.84
2022-08-03T08:14:48.075Z,97133.13
2022-08-03T08:17:15.931Z,97139.53
2022-08-03T08:19:51.451Z,97127.19
2022-08-03T08:22:28.742Z,97139.91
2022-08-03T08:25:01.766Z,97131.72
2022-08-03T08:28:31.105Z,97140.47
2022-08-03T08:30:20.377Z,97142.66
2022-08-03T08:32:48.441Z,97149.97
2022-08-03T08:35:16.523Z,97143.88
2022-08-03T08:37:51.141Z,97146.91
2022-08-03T08:40:21.333Z,97125.41
2022-08-03T08:42:58.460Z,97138.84
2022-08-03T08:45:27.896Z,97137.56
2022-08-03T08:48:00.333Z,97147.38
2022-08-03T08:50:29.952Z,97139.31
2022-08-03T08:52:58.824Z,97142.81
2022-08-03T08:55:26.599Z,97139.19
2022-08-03T08:58:02.731Z,97135.34
2022-08-03T09:00:31.296Z,97145.53
2022-08-03T09:02:59.010Z,97144.09
2022-08-03T09:05:54.649Z,97139.78
2022-08-03T09:08:14.712Z,97139.75
2022-08-03T09:10:42.616Z,97148.34
2022-08-03T09:13:10.368Z,97142.13
2022-08-03T09:15:39.285Z,97139.56
2022-08-03T09:18:07.203Z,97140.22
2022-08-03T09:20:35.226Z,97135.06
2022-08-03T09:23:19.045Z,97132.00
2022-08-03T09:25:52.983Z,97124.50
2022-08-03T09:28:59.704Z,97129.34
2022-08-03T09:31:08.759Z,97133.78
2022-08-03T09:33:47.146Z,97130.56
2022-08-03T09:36:35.063Z,97123.44
2022-08-03T09:39:07.416Z,97133.94
2022-08-03T09:41:35.391Z,97123.34
2022-08-03T09:44:03.053Z,97124.47
2022-08-03T09:46:32.150Z,97124.88
2022-08-03T09:49:11.649Z,97119.72
2022-08-03T09:52:31.432Z,97129.63
2022-08-03T09:54:29.277Z,97119.47
2022-08-03T09:56:57.124Z,97114.31
2022-08-03T09:59:29.039Z,97118.25
2022-08-03T10:01:57.770Z,97124.91
2022-08-03T10:04:25.751Z,97122.47
2022-08-03T10:07:09.622Z,97123.44
2022-08-03T10:09:37.956Z,97100.97
2022-08-03T10:12:10.794Z,97106.66
2022-08-03T10:14:39.485Z,97112.25
2022-08-03T10:17:07.209Z,97106.72
2022-08-03T10:19:35.058Z,97102.41
2022-08-03T10:22:19.275Z,97116.44
2022-08-03T10:24:53.023Z,97104.78
2022-08-03T10:27:21.032Z,97098.13
2022-08-03T10:29:52.653Z,97098.09
2022-08-03T10:32:29.467Z,97085.66
2022-08-03T10:35:18.908Z,97100.38
2022-08-03T10:37:57.399Z,97090.19
2022-08-03T10:40:49.580Z,97085.19
2022-08-03T10:43:23.311Z,97080.13
2022-08-03T10:45:51.388Z,97089.47
2022-08-03T10:48:19.460Z,97090.91
2022-08-03T10:50:48.699Z,97087.78
2022-08-03T10:53:18.613Z,97079.31
2022-08-03T10:56:06.516Z,97070.88
2022-08-03T10:58:56.941Z,97071.63
2022-08-03T11:01:58.359Z,97080.94
2022-08-03T11:04:30.388Z,97085.47
2022-08-03T11:07:23.038Z,97083.75
2022-08-03T11:09:54.616Z,97077.13
2022-08-03T11:12:28.371Z,97081.59
2022-08-03T11:15:01.815Z,97079.78
2022-08-03T11:17:29.847Z,97077.91
2022-08-03T11:19:58.580Z,97075.81
2022-08-03T11:22:29.202Z,97074.34
2022-08-03T11:24:57.760Z,97072.19
2022-08-03T11:27:32.373Z,97069.75
2022-08-03T11:30:10.369Z,97072.91
2022-08-03T11:32:38.465Z,97065.97
2022-08-03T11:35:24.292Z,97077.09
2022-08-03T11:38:03.058Z,97067.69
2022-08-03T11:40:35.923Z,97066.41
2022-08-03T11:43:04.964Z,97066.53
2022-08-03T11:45:32.788Z,97057.81
2022-08-03T11:48:12.786Z,97055.09
2022-08-03T11:50:41.510Z,97064.56
2022-08-03T11:53:17.249Z,97045.13
2022-08-03T11:55:49.109Z,97040.16
2022-08-03T11:59:01.264Z,97050.16
2022-08-03T12:01:07.466Z,97043.47
2022-08-03T12:03:35.393Z,97041.94
2022-08-03T12:06:04.602Z,97031.59
2022-08-03T12:08:33.519Z,97037.06
2022-08-03T12:11:05.964Z,97027.91
2022-08-03T12:14:44.470Z,97037.47
2022-08-03T12:16:33.192Z,97031.25
2022-08-03T12:19:02.949Z,97036.00
2022-08-03T12:21:30.980Z,97043.03
2022-08-03T12:24:00.669Z,97035.41
2022-08-03T12:26:29.590Z,97036.66
2022-08-03T12:28:58.350Z,97016.53
2022-08-03T12:31:26.628Z,97018.59
2022-08-03T12:34:05.309Z,97020.72
2022-08-03T12:36:35.255Z,97031.38
2022-08-03T12:39:06.327Z,97029.38
2022-08-03T12:41:38.257Z,97029.97
2022-08-03T12:44:06.987Z,97022.19
2022-08-03T12:46:42.738Z,97013.72
2022-08-03T12:49:20.122Z,97026.97
2022-08-03T12:51:51.432Z,97030.56
2022-08-03T12:54:24.338Z,97029.13
2022-08-03T12:57:08.221Z,97031.22
2022-08-03T12:59:49.935Z,97029.13
2022-08-03T13:02:26.314Z,97031.47
2022-08-03T13:04:54.984Z,97030.00
2022-08-03T13:07:23.263Z,97023.56
2022-08-03T13:09:53.164Z,97012.91
2022-08-03T13:12:25.606Z,97026.91
2022-08-03T13:14:55.991Z,97018.06
2022-08-03T13:17:24.110Z,97030.94
2022-08-03T13:19:52.146Z,97023.25
2022-08-03T13:22:30.426Z,97020.50
2022-08-03T13:24:58.396Z,97014.56
2022-08-03T13:28:03.565Z,97020.59
2022-08-03T13:30:14.428Z,97017.13
2022-08-03T13:32:52.884Z,97009.75
2022-08-03T13:35:20.689Z,97026.31
2022-08-03T13:37:49.121Z,97020.59
2022-08-03T13:40:17.084Z,97018.53
2022-08-03T13:42:45.839Z,97022.03
2022-08-03T13:45:13.603Z,97025.38
2022-08-03T13:47:41.692Z,97018.53
2022-08-03T13:50:09.878Z,97019.97
2022-08-03T13:52:37.879Z,97020.44
2022-08-03T13:55:06.233Z,97018.25
2022-08-03T13:58:02.670Z,97024.72
2022-08-03T14:00:29.306Z,97024.31
2022-08-03T14:03:05.293Z,97022.03
2022-08-03T14:05:38.826Z,97032.06
2022-08-03T14:08:07.117Z,97028.53
2022-08-03T14:10:38.965Z,97032.00
2022-08-03T14:13:06.863Z,97041.59
2022-08-03T14:15:37.626Z,97031.97
2022-08-03T14:18:15.384Z,97027.72
2022-08-03T14:20:50.168Z,97030.31
2022-08-03T14:23:22.128Z,97021.63
2022-08-03T14:25:52.291Z,97022.38
2022-08-03T14:28:24.129Z,97023.22
2022-08-03T14:30:52.222Z,97018.09
2022-08-03T14:33:20.404Z,97021.44
2022-08-03T14:35:50.448Z,97016.69
2022-08-03T14:38:18.553Z,97013.31
2022-08-03T14:40:46.535Z,97012.88
2022-08-03T14:43:15.005Z,97006.75
2022-08-03T14:45:42.900Z,97004.97
2022-08-03T14:50:29.667Z,97007.00
2022-08-03T14:51:00.689Z,97008.19
2022-08-03T14:53:29.667Z,97005.66
2022-08-03T14:55:57.647Z,97011.38
2022-08-03T14:58:26.847Z,97005.47
2022-08-03T15:00:56.122Z,97010.91
2022-08-03T15:03:25.010Z,97004.31
2022-08-03T15:05:53.600Z,97003.00
2022-08-03T15:08:22.176Z,97011.22
2022-08-03T15:10:50.791Z,97011.28
2022-08-03T15:13:19.768Z,97011.00
2022-08-03T15:15:48.040Z,97009.78
2022-08-03T15:18:15.984Z,97014.41
2022-08-03T15:20:45.931Z,97023.66
2022-08-03T15:23:15.288Z,97022.81
2022-08-03T15:26:04.056Z,97026.56
2022-08-03T15:28:32.200Z,97022.28
2022-08-03T15:31:00.530Z,97041.03
2022-08-03T15:33:28.696Z,97033.00
2022-08-03T15:35:56.747Z,97024.16
2022-08-03T15:38:25.894Z,97029.38
2022-08-03T15:40:57.255Z,97032.03
2022-08-03T15:43:25.098Z,97038.72
2022-08-03T15:46:26.625Z,97040.31
2022-08-03T15:48:41.186Z,97040.38
2022-08-03T15:51:09.025Z,97041.38
2022-08-03T15:53:37.609Z,97046.63
2022-08-03T15:56:11.359Z,97047.34
2022-08-03T15:59:03.385Z,97046.59
2022-08-03T16:01:30.251Z,97053.53
2022-08-03T16:03:57.978Z,97048.88
2022-08-03T16:06:34.634Z,97044.91
2022-08-03T16:09:22.856Z,97048.13
2022-08-03T16:11:55.072Z,97051.63
2022-08-03T16:14:33.312Z,97050.22
2022-08-03T16:17:05.862Z,97045.91
2022-08-03T16:19:33.640Z,97043.06
2022-08-03T16:22:01.705Z,97046.69
2022-08-03T16:24:31.291Z,97048.38
2022-08-03T16:27:00.469Z,97042.59
2022-08-03T16:29:28.844Z,97039.31
2022-08-03T16:31:56.662Z,97035.63
2022-08-03T16:34:24.597Z,97045.28
2022-08-03T16:36:52.728Z,97046.28
2022-08-03T16:39:20.516Z,97040.63
2022-08-03T16:41:53.943Z,97039.91
2022-08-03T16:44:29.832Z,97043.81
2022-08-03T16:46:58.213Z,97043.31
2022-08-03T16:49:54.939Z,97041.19
2022-08-03T16:52:14.093Z,97035.22
2022-08-03T16:54:50.727Z,97043.81
2022-08-03T16:57:56.678Z,97047.41
2022-08-03T17:00:34.395Z,97042.00
2022-08-03T17:03:04.053Z,97038.50
2022-08-03T17:05:47.312Z,97047.88
2022-08-03T17:08:16.169Z,97043.88
2022-08-03T17:10:44.485Z,97047.78
2022-08-03T17:13:21.698Z,97042.91
2022-08-03T17:16:03.528Z,97046.38
2022-08-03T17:18:35.007Z,97046.56
2022-08-03T17:21:06.802Z,97040.75
2022-08-03T17:23:47.901Z,97037.75
2022-08-03T17:26:21.691Z,97041.38
2022-08-03T17:28:58.090Z,97042.66
2022-08-03T17:31:31.344Z,97041.91
2022-08-03T17:34:01.910Z,97041.09
2022-08-03T17:37:00.861Z,97045.16
2022-08-03T17:39:30.824Z,97047.41
2022-08-03T17:42:29.195Z,97042.09
2022-08-03T17:44:56.005Z,97045.50
2022-08-03T17:47:40.952Z,97053.34
2022-08-03T17:50:24.518Z,97039.88
2022-08-03T17:53:15.421Z,97047.56
2022-08-03T17:56:42.430Z,97047.69
2022-08-03T17:59:16.579Z,97052.41
2022-08-03T18:03:00.862Z,97041.41
2022-08-03T18:06:11.106Z,97046.69
2022-08-03T18:08:29.935Z,97044.94
2022-08-03T18:11:14.324Z,97047.72
2022-08-03T18:14:15.992Z,97044.63
2022-08-03T18:16:48.715Z,97046.31
2022-08-03T18:19:16.494Z,97051.13
2022-08-03T18:22:02.766Z,97051.75
2022-08-03T18:24:32.500Z,97056.59
2022-08-03T18:27:03.197Z,97049.63
2022-08-03T18:29:31.145Z,97046.69
2022-08-03T18:32:03.108Z,97048.63
2022-08-03T18:34:33.836Z,97057.34
2022-08-03T18:37:07.227Z,97064.88
2022-08-03T18:39:50.281Z,97060.66
2022-08-03T18:42:26.146Z,97064.50
2022-08-03T18:44:55.973Z,97074.47
2022-08-03T18:47:52.651Z,97075.84
2022-08-03T18:50:49.657Z,97074.03
2022-08-03T18:54:02.128Z,97080.47
2022-08-03T18:56:30.829Z,97079.72
2022-08-03T18:59:07.496Z,97087.28
2022-08-03T19:02:00.743Z,97083.59
2022-08-03T19:04:34.211Z,97080.94
2022-08-03T19:07:07.921Z,97095.41
2022-08-03T19:09:45.004Z,97087.97
2022-08-03T19:12:30.916Z,97099.81
2022-08-03T19:15:12.728Z,97099.31
2022-08-03T19:17:53.323Z,97097.72
2022-08-03T19:20:28.637Z,97106.28
2022-08-03T19:22:57.416Z,97100.13
